sensor_id;sensor_type;location;lat;lon;timestamp;temperature;humidity
47861;HTU21D;33620;52.340;5.984;2023-06-05T00:00:52;15.60;64.00
47861;HTU21D;33620;52.340;5.984;2023-06-05T00:03:17;15.57;64.23
47861;HTU21D;33620;52.340;5.984;2023-06-05T00:05:43;15.54;64.21
47861;HTU21D;33620;52.340;5.984;2023-06-05T00:08:08;15.52;64.37
47861;HTU21D;33620;52.340;5.984;2023-06-05T00:10:33;15.46;64.50
47861;HTU21D;33620;52.340;5.984;2023-06-05T00:12:59;15.47;64.43
47861;HTU21D;33620;52.340;5.984;2023-06-05T00:15:25;15.46;64.63
47861;HTU21D;33620;52.340;5.984;2023-06-05T00:17:50;15.42;64.52
47861;HTU21D;33620;52.340;5.984;2023-06-05T00:20:17;15.36;64.76
47861;HTU21D;33620;52.340;5.984;2023-06-05T00:22:43;15.33;65.01
47861;HTU21D;33620;52.340;5.984;2023-06-05T00:25:12;15.31;65.10
47861;HTU21D;33620;52.340;5.984;2023-06-05T00:27:38;15.32;65.05
47861;HTU21D;33620;52.340;5.984;2023-06-05T00:30:09;15.29;65.04
47861;HTU21D;33620;52.340;5.984;2023-06-05T00:32:35;15.25;65.25
47861;HTU21D;33620;52.340;5.984;2023-06-05T00:35:01;15.24;65.27
47861;HTU21D;33620;52.340;5.984;2023-06-05T00:37:27;15.19;65.33
47861;HTU21D;33620;52.340;5.984;2023-06-05T00:39:52;15.19;65.32
47861;HTU21D;33620;52.340;5.984;2023-06-05T00:42:18;15.19;65.56
47861;HTU21D;33620;52.340;5.984;2023-06-05T00:44:43;15.21;65.28
47861;HTU21D;33620;52.340;5.984;2023-06-05T00:47:09;15.15;65.45
47861;HTU21D;33620;52.340;5.984;2023-06-05T00:49:35;15.09;65.60
47861;HTU21D;33620;52.340;5.984;2023-06-05T00:52:01;15.04;65.86
47861;HTU21D;33620;52.340;5.984;2023-06-05T00:54:26;14.98;66.09
47861;HTU21D;33620;52.340;5.984;2023-06-05T00:56:53;14.95;66.17
47861;HTU21D;33620;52.340;5.984;2023-06-05T00:59:19;14.89;66.40
47861;HTU21D;33620;52.340;5.984;2023-06-05T01:01:45;14.87;66.50
47861;HTU21D;33620;52.340;5.984;2023-06-05T01:04:10;14.86;66.36
47861;HTU21D;33620;52.340;5.984;2023-06-05T01:06:36;14.87;66.41
47861;HTU21D;33620;52.340;5.984;2023-06-05T01:09:03;14.81;66.34
47861;HTU21D;33620;52.340;5.984;2023-06-05T01:14:23;14.80;66.56
47861;HTU21D;33620;52.340;5.984;2023-06-05T01:16:51;14.75;66.69
47861;HTU21D;33620;52.340;5.984;2023-06-05T01:19:20;14.70;66.89
47861;HTU21D;33620;52.340;5.984;2023-06-05T01:21:46;14.67;66.91
47861;HTU21D;33620;52.340;5.984;2023-06-05T01:24:11;14.65;66.97
47861;HTU21D;33620;52.340;5.984;2023-06-05T01:35:07;14.62;67.12
47861;HTU21D;33620;52.340;5.984;2023-06-05T01:37:36;14.59;67.11
47861;HTU21D;33620;52.340;5.984;2023-06-05T01:40:07;14.58;66.88
47861;HTU21D;33620;52.340;5.984;2023-06-05T01:42:35;14.55;67.28
47861;HTU21D;33620;52.340;5.984;2023-06-05T01:45:02;14.52;67.43
47861;HTU21D;33620;52.340;5.984;2023-06-05T01:47:28;14.52;67.17
47861;HTU21D;33620;52.340;5.984;2023-06-05T01:49:53;14.47;67.44
47861;HTU21D;33620;52.340;5.984;2023-06-05T01:52:19;14.44;67.49
47861;HTU21D;33620;52.340;5.984;2023-06-05T01:54:44;14.47;67.54
47861;HTU21D;33620;52.340;5.984;2023-06-05T01:57:11;14.51;67.27
47861;HTU21D;33620;52.340;5.984;2023-06-05T01:59:37;14.51;67.09
47861;HTU21D;33620;52.340;5.984;2023-06-05T02:02:02;14.47;67.46
47861;HTU21D;33620;52.340;5.984;2023-06-05T02:04:28;14.44;67.38
47861;HTU21D;33620;52.340;5.984;2023-06-05T02:06:54;14.42;67.54
47861;HTU21D;33620;52.340;5.984;2023-06-05T02:09:19;14.37;67.42
47861;HTU21D;33620;52.340;5.984;2023-06-05T02:11:45;14.30;67.77
47861;HTU21D;33620;52.340;5.984;2023-06-05T02:14:11;14.32;67.65
47861;HTU21D;33620;52.340;5.984;2023-06-05T02:16:41;14.27;67.81
47861;HTU21D;33620;52.340;5.984;2023-06-05T02:19:07;14.26;67.88
47861;HTU21D;33620;52.340;5.984;2023-06-05T02:21:33;14.27;67.63
47861;HTU21D;33620;52.340;5.984;2023-06-05T02:23:59;14.22;67.84
47861;HTU21D;33620;52.340;5.984;2023-06-05T02:26:25;14.18;67.82
47861;HTU21D;33620;52.340;5.984;2023-06-05T02:28:51;14.15;67.89
47861;HTU21D;33620;52.340;5.984;2023-06-05T02:31:20;14.09;68.14
47861;HTU21D;33620;52.340;5.984;2023-06-05T02:33:50;14.03;68.41
47861;HTU21D;33620;52.340;5.984;2023-06-05T02:36:16;14.01;68.43
47861;HTU21D;33620;52.340;5.984;2023-06-05T02:38:42;14.00;68.43
47861;HTU21D;33620;52.340;5.984;2023-06-05T02:41:08;14.00;68.10
47861;HTU21D;33620;52.340;5.984;2023-06-05T02:43:34;13.85;68.96
47861;HTU21D;33620;52.340;5.984;2023-06-05T02:46:00;13.84;69.10
47861;HTU21D;33620;52.340;5.984;2023-06-05T02:48:25;13.90;68.83
47861;HTU21D;33620;52.340;5.984;2023-06-05T02:50:51;13.89;68.52
47861;HTU21D;33620;52.340;5.984;2023-06-05T02:53:16;13.83;68.91
47861;HTU21D;33620;52.340;5.984;2023-06-05T02:55:41;13.81;68.95
47861;HTU21D;33620;52.340;5.984;2023-06-05T02:58:08;13.76;69.10
47861;HTU21D;33620;52.340;5.984;2023-06-05T03:00:34;13.78;69.08
47861;HTU21D;33620;52.340;5.984;2023-06-05T03:02:59;13.76;69.16
47861;HTU21D;33620;52.340;5.984;2023-06-05T03:05:26;13.80;69.14
47861;HTU21D;33620;52.340;5.984;2023-06-05T03:07:52;13.81;68.66
47861;HTU21D;33620;52.340;5.984;2023-06-05T03:10:21;13.75;69.03
47861;HTU21D;33620;52.340;5.984;2023-06-05T03:12:47;13.75;69.16
47861;HTU21D;33620;52.340;5.984;2023-06-05T03:15:12;13.74;69.05
47861;HTU21D;33620;52.340;5.984;2023-06-05T03:17:38;13.71;69.07
47861;HTU21D;33620;52.340;5.984;2023-06-05T03:20:04;13.75;69.06
47861;HTU21D;33620;52.340;5.984;2023-06-05T03:22:31;13.74;69.13
47861;HTU21D;33620;52.340;5.984;2023-06-05T03:24:57;13.73;68.85
47861;HTU21D;33620;52.340;5.984;2023-06-05T03:27:23;13.68;69.13
47861;HTU21D;33620;52.340;5.984;2023-06-05T03:29:48;13.66;69.21
47861;HTU21D;33620;52.340;5.984;2023-06-05T03:32:13;13.63;69.35
47861;HTU21D;33620;52.340;5.984;2023-06-05T03:34:39;13.62;69.39
47861;HTU21D;33620;52.340;5.984;2023-06-05T03:37:08;13.61;69.45
47861;HTU21D;33620;52.340;5.984;2023-06-05T03:39:33;13.59;69.50
47861;HTU21D;33620;52.340;5.984;2023-06-05T03:41:58;13.54;69.52
47861;HTU21D;33620;52.340;5.984;2023-06-05T03:44:25;13.52;69.64
47861;HTU21D;33620;52.340;5.984;2023-06-05T03:46:50;13.52;69.85
47861;HTU21D;33620;52.340;5.984;2023-06-05T03:49:16;13.48;69.99
47861;HTU21D;33620;52.340;5.984;2023-06-05T03:51:41;13.49;70.03
47861;HTU21D;33620;52.340;5.984;2023-06-05T03:54:08;13.51;69.57
47861;HTU21D;33620;52.340;5.984;2023-06-05T03:56:34;13.46;70.02
47861;HTU21D;33620;52.340;5.984;2023-06-05T03:59:00;13.46;70.09
47861;HTU21D;33620;52.340;5.984;2023-06-05T04:01:37;13.47;70.03
47861;HTU21D;33620;52.340;5.984;2023-06-05T04:04:05;13.46;70.26
47861;HTU21D;33620;52.340;5.984;2023-06-05T04:06:31;13.44;70.26
47861;HTU21D;33620;52.340;5.984;2023-06-05T04:09:02;13.43;70.34
47861;HTU21D;33620;52.340;5.984;2023-06-05T04:11:28;13.45;70.18
47861;HTU21D;33620;52.340;5.984;2023-06-05T04:13:53;13.44;70.37
47861;HTU21D;33620;52.340;5.984;2023-06-05T04:16:19;13.44;70.24
47861;HTU21D;33620;52.340;5.984;2023-06-05T04:18:44;13.44;70.39
47861;HTU21D;33620;52.340;5.984;2023-06-05T04:21:10;13.45;70.33
47861;HTU21D;33620;52.340;5.984;2023-06-05T04:23:36;13.45;70.29
47861;HTU21D;33620;52.340;5.984;2023-06-05T04:26:02;13.44;70.48
47861;HTU21D;33620;52.340;5.984;2023-06-05T04:28:28;13.47;70.06
47861;HTU21D;33620;52.340;5.984;2023-06-05T04:30:54;13.44;70.25
47861;HTU21D;33620;52.340;5.984;2023-06-05T04:33:21;13.39;70.49
47861;HTU21D;33620;52.340;5.984;2023-06-05T04:35:46;13.41;70.64
47861;HTU21D;33620;52.340;5.984;2023-06-05T04:38:11;13.44;70.31
47861;HTU21D;33620;52.340;5.984;2023-06-05T04:40:37;13.38;70.69
47861;HTU21D;33620;52.340;5.984;2023-06-05T04:43:02;13.36;70.70
47861;HTU21D;33620;52.340;5.984;2023-06-05T04:45:28;13.36;70.93
47861;HTU21D;33620;52.340;5.984;2023-06-05T04:47:53;13.37;71.04
47861;HTU21D;33620;52.340;5.984;2023-06-05T04:50:27;13.37;71.05
47861;HTU21D;33620;52.340;5.984;2023-06-05T04:52:53;13.41;71.03
47861;HTU21D;33620;52.340;5.984;2023-06-05T04:55:19;13.41;70.66
47861;HTU21D;33620;52.340;5.984;2023-06-05T04:57:46;13.41;71.09
47861;HTU21D;33620;52.340;5.984;2023-06-05T05:00:14;13.43;70.92
47861;HTU21D;33620;52.340;5.984;2023-06-05T05:02:40;13.44;70.97
47861;HTU21D;33620;52.340;5.984;2023-06-05T05:05:06;13.39;71.20
47861;HTU21D;33620;52.340;5.984;2023-06-05T05:07:31;13.40;71.29
47861;HTU21D;33620;52.340;5.984;2023-06-05T05:09:57;13.45;71.18
47861;HTU21D;33620;52.340;5.984;2023-06-05T05:12:22;13.48;71.26
47861;HTU21D;33620;52.340;5.984;2023-06-05T05:14:48;13.46;71.13
47861;HTU21D;33620;52.340;5.984;2023-06-05T05:17:13;13.45;71.33
47861;HTU21D;33620;52.340;5.984;2023-06-05T05:19:40;13.46;71.37
47861;HTU21D;33620;52.340;5.984;2023-06-05T05:22:06;13.49;71.45
47861;HTU21D;33620;52.340;5.984;2023-06-05T05:24:32;13.52;71.39
47861;HTU21D;33620;52.340;5.984;2023-06-05T05:26:57;13.56;71.52
47861;HTU21D;33620;52.340;5.984;2023-06-05T05:29:23;13.61;71.45
47861;HTU21D;33620;52.340;5.984;2023-06-05T05:31:48;13.63;71.42
47861;HTU21D;33620;52.340;5.984;2023-06-05T05:34:13;13.66;71.28
47861;HTU21D;33620;52.340;5.984;2023-06-05T05:36:39;13.66;71.18
47861;HTU21D;33620;52.340;5.984;2023-06-05T05:39:04;13.70;71.22
47861;HTU21D;33620;52.340;5.984;2023-06-05T05:41:30;13.74;71.02
47861;HTU21D;33620;52.340;5.984;2023-06-05T05:43:55;13.80;71.22
47861;HTU21D;33620;52.340;5.984;2023-06-05T05:46:21;13.84;70.81
47861;HTU21D;33620;52.340;5.984;2023-06-05T05:48:46;13.86;71.00
47861;HTU21D;33620;52.340;5.984;2023-06-05T05:51:12;13.91;70.79
47861;HTU21D;33620;52.340;5.984;2023-06-05T05:53:37;13.97;70.75
47861;HTU21D;33620;52.340;5.984;2023-06-05T05:56:03;14.05;70.32
47861;HTU21D;33620;52.340;5.984;2023-06-05T05:58:30;14.06;70.71
47861;HTU21D;33620;52.340;5.984;2023-06-05T06:00:56;14.09;70.55
47861;HTU21D;33620;52.340;5.984;2023-06-05T06:03:22;14.08;70.55
47861;HTU21D;33620;52.340;5.984;2023-06-05T06:05:48;14.04;70.12
47861;HTU21D;33620;52.340;5.984;2023-06-05T06:08:14;14.03;70.73
47861;HTU21D;33620;52.340;5.984;2023-06-05T06:10:40;14.00;70.52
47861;HTU21D;33620;52.340;5.984;2023-06-05T06:13:06;14.04;70.68
47861;HTU21D;33620;52.340;5.984;2023-06-05T06:15:32;14.07;70.58
47861;HTU21D;33620;52.340;5.984;2023-06-05T06:17:57;14.00;70.40
47861;HTU21D;33620;52.340;5.984;2023-06-05T06:20:25;13.98;70.58
47861;HTU21D;33620;52.340;5.984;2023-06-05T06:22:50;13.99;70.80
47861;HTU21D;33620;52.340;5.984;2023-06-05T06:25:19;14.01;70.77
47861;HTU21D;33620;52.340;5.984;2023-06-05T06:27:46;14.05;70.98
47861;HTU21D;33620;52.340;5.984;2023-06-05T06:30:16;14.09;70.77
47861;HTU21D;33620;52.340;5.984;2023-06-05T06:32:42;14.13;70.47
47861;HTU21D;33620;52.340;5.984;2023-06-05T06:35:07;14.13;70.36
47861;HTU21D;33620;52.340;5.984;2023-06-05T06:37:33;14.17;70.42
47861;HTU21D;33620;52.340;5.984;2023-06-05T06:39:58;14.19;70.36
47861;HTU21D;33620;52.340;5.984;2023-06-05T06:42:24;14.24;70.45
47861;HTU21D;33620;52.340;5.984;2023-06-05T06:44:49;14.19;70.35
47861;HTU21D;33620;52.340;5.984;2023-06-05T06:47:21;14.23;70.90
47861;HTU21D;33620;52.340;5.984;2023-06-05T06:49:46;14.30;70.85
47861;HTU21D;33620;52.340;5.984;2023-06-05T06:52:12;14.37;70.45
47861;HTU21D;33620;52.340;5.984;2023-06-05T06:54:37;14.38;70.60
47861;HTU21D;33620;52.340;5.984;2023-06-05T06:57:03;14.40;70.40
47861;HTU21D;33620;52.340;5.984;2023-06-05T06:59:28;14.45;70.13
47861;HTU21D;33620;52.340;5.984;2023-06-05T07:02:13;14.44;70.06
47861;HTU21D;33620;52.340;5.984;2023-06-05T07:04:39;14.45;70.00
47861;HTU21D;33620;52.340;5.984;2023-06-05T07:07:08;14.47;70.18
47861;HTU21D;33620;52.340;5.984;2023-06-05T07:09:34;14.49;70.04
47861;HTU21D;33620;52.340;5.984;2023-06-05T07:12:00;14.53;70.42
47861;HTU21D;33620;52.340;5.984;2023-06-05T07:14:30;14.52;69.55
47861;HTU21D;33620;52.340;5.984;2023-06-05T07:16:55;14.47;69.51
47861;HTU21D;33620;52.340;5.984;2023-06-05T07:19:21;14.50;70.14
47861;HTU21D;33620;52.340;5.984;2023-06-05T07:21:47;14.56;69.94
47861;HTU21D;33620;52.340;5.984;2023-06-05T07:24:12;14.58;69.68
47861;HTU21D;33620;52.340;5.984;2023-06-05T07:26:37;14.59;69.48
47861;HTU21D;33620;52.340;5.984;2023-06-05T07:29:03;14.57;69.64
47861;HTU21D;33620;52.340;5.984;2023-06-05T07:31:28;14.58;69.84
47861;HTU21D;33620;52.340;5.984;2023-06-05T07:33:55;14.65;69.85
47861;HTU21D;33620;52.340;5.984;2023-06-05T07:36:21;14.68;69.83
47861;HTU21D;33620;52.340;5.984;2023-06-05T07:38:47;14.74;69.52
47861;HTU21D;33620;52.340;5.984;2023-06-05T07:41:13;14.79;68.78
47861;HTU21D;33620;52.340;5.984;2023-06-05T07:43:39;14.77;68.91
47861;HTU21D;33620;52.340;5.984;2023-06-05T07:46:07;14.84;69.41
47861;HTU21D;33620;52.340;5.984;2023-06-05T07:48:34;14.91;69.10
47861;HTU21D;33620;52.340;5.984;2023-06-05T07:51:00;15.00;68.63
47861;HTU21D;33620;52.340;5.984;2023-06-05T07:53:25;15.09;68.61
47861;HTU21D;33620;52.340;5.984;2023-06-05T07:55:51;15.13;68.17
47861;HTU21D;33620;52.340;5.984;2023-06-05T07:58:17;15.23;68.38
47861;HTU21D;33620;52.340;5.984;2023-06-05T08:00:43;15.28;67.84
47861;HTU21D;33620;52.340;5.984;2023-06-05T08:03:15;15.33;67.55
47861;HTU21D;33620;52.340;5.984;2023-06-05T08:05:46;15.36;66.83
47861;HTU21D;33620;52.340;5.984;2023-06-05T08:08:12;15.39;67.00
47861;HTU21D;33620;52.340;5.984;2023-06-05T08:10:37;15.45;67.33
47861;HTU21D;33620;52.340;5.984;2023-06-05T08:13:02;15.54;66.97
47861;HTU21D;33620;52.340;5.984;2023-06-05T08:15:28;15.60;66.22
47861;HTU21D;33620;52.340;5.984;2023-06-05T08:17:53;15.67;66.33
47861;HTU21D;33620;52.340;5.984;2023-06-05T08:20:19;15.77;66.42
47861;HTU21D;33620;52.340;5.984;2023-06-05T08:22:44;15.92;65.97
47861;HTU21D;33620;52.340;5.984;2023-06-05T08:25:10;16.04;65.43
47861;HTU21D;33620;52.340;5.984;2023-06-05T08:27:35;16.17;64.38
47861;HTU21D;33620;52.340;5.984;2023-06-05T08:30:01;16.28;64.40
47861;HTU21D;33620;52.340;5.984;2023-06-05T08:32:26;16.41;64.70
47861;HTU21D;33620;52.340;5.984;2023-06-05T08:34:52;16.61;64.40
47861;HTU21D;33620;52.340;5.984;2023-06-05T08:37:17;16.77;63.65
47861;HTU21D;33620;52.340;5.984;2023-06-05T08:39:43;16.95;63.27
47861;HTU21D;33620;52.340;5.984;2023-06-05T08:42:09;17.11;61.72
47861;HTU21D;33620;52.340;5.984;2023-06-05T08:44:36;17.24;61.05
47861;HTU21D;33620;52.340;5.984;2023-06-05T08:47:02;17.36;61.14
47861;HTU21D;33620;52.340;5.984;2023-06-05T08:49:29;17.46;60.96
47861;HTU21D;33620;52.340;5.984;2023-06-05T08:52:03;17.60;60.45
47861;HTU21D;33620;52.340;5.984;2023-06-05T08:54:40;17.67;59.81
47861;HTU21D;33620;52.340;5.984;2023-06-05T08:57:07;17.69;59.15
47861;HTU21D;33620;52.340;5.984;2023-06-05T08:59:33;17.77;59.30
47861;HTU21D;33620;52.340;5.984;2023-06-05T09:01:59;17.84;59.10
47861;HTU21D;33620;52.340;5.984;2023-06-05T09:04:24;18.00;60.23
47861;HTU21D;33620;52.340;5.984;2023-06-05T09:06:51;18.19;59.44
47861;HTU21D;33620;52.340;5.984;2023-06-05T09:09:17;18.23;58.85
47861;HTU21D;33620;52.340;5.984;2023-06-05T09:11:43;18.34;58.59
47861;HTU21D;33620;52.340;5.984;2023-06-05T09:14:09;18.39;57.46
47861;HTU21D;33620;52.340;5.984;2023-06-05T09:16:36;18.46;57.87
47861;HTU21D;33620;52.340;5.984;2023-06-05T09:19:03;18.54;57.26
47861;HTU21D;33620;52.340;5.984;2023-06-05T09:21:29;18.65;57.81
47861;HTU21D;33620;52.340;5.984;2023-06-05T09:24:16;18.82;57.11
47861;HTU21D;33620;52.340;5.984;2023-06-05T09:26:56;18.91;56.90
47861;HTU21D;33620;52.340;5.984;2023-06-05T09:29:23;19.02;56.55
47861;HTU21D;33620;52.340;5.984;2023-06-05T09:31:50;19.09;56.64
47861;HTU21D;33620;52.340;5.984;2023-06-05T09:34:30;19.09;55.97
47861;HTU21D;33620;52.340;5.984;2023-06-05T09:36:57;19.03;56.41
47861;HTU21D;33620;52.340;5.984;2023-06-05T09:39:25;19.17;56.73
47861;HTU21D;33620;52.340;5.984;2023-06-05T09:41:51;19.15;56.03
47861;HTU21D;33620;52.340;5.984;2023-06-05T09:44:21;19.20;57.10
47861;HTU21D;33620;52.340;5.984;2023-06-05T09:49:20;19.36;54.46
47861;HTU21D;33620;52.340;5.984;2023-06-05T09:51:46;19.40;54.55
47861;HTU21D;33620;52.340;5.984;2023-06-05T09:54:13;19.43;54.97
47861;HTU21D;33620;52.340;5.984;2023-06-05T09:56:46;19.53;55.96
47861;HTU21D;33620;52.340;5.984;2023-06-05T09:59:18;19.71;56.06
47861;HTU21D;33620;52.340;5.984;2023-06-05T10:01:44;19.85;53.92
47861;HTU21D;33620;52.340;5.984;2023-06-05T10:04:10;19.87;54.68
47861;HTU21D;33620;52.340;5.984;2023-06-05T10:06:38;19.97;53.91
47861;HTU21D;33620;52.340;5.984;2023-06-05T10:09:06;20.07;53.52
47861;HTU21D;33620;52.340;5.984;2023-06-05T10:11:32;20.24;53.56
47861;HTU21D;33620;52.340;5.984;2023-06-05T10:13:58;20.30;52.38
47861;HTU21D;33620;52.340;5.984;2023-06-05T10:16:27;20.29;52.59
47861;HTU21D;33620;52.340;5.984;2023-06-05T10:18:56;20.40;53.29
47861;HTU21D;33620;52.340;5.984;2023-06-05T10:21:23;20.48;52.71
47861;HTU21D;33620;52.340;5.984;2023-06-05T10:24:01;20.49;51.91
47861;HTU21D;33620;52.340;5.984;2023-06-05T10:32:33;20.72;52.39
47861;HTU21D;33620;52.340;5.984;2023-06-05T10:39:59;21.02;51.25
47861;HTU21D;33620;52.340;5.984;2023-06-05T10:42:28;21.07;50.59
47861;HTU21D;33620;52.340;5.984;2023-06-05T10:44:55;21.03;50.48
47861;HTU21D;33620;52.340;5.984;2023-06-05T10:52:43;20.94;51.05
47861;HTU21D;33620;52.340;5.984;2023-06-05T10:55:09;21.02;50.60
47861;HTU21D;33620;52.340;5.984;2023-06-05T11:00:25;21.36;51.66
47861;HTU21D;33620;52.340;5.984;2023-06-05T11:02:51;21.48;50.27
47861;HTU21D;33620;52.340;5.984;2023-06-05T11:05:17;21.55;49.91
47861;HTU21D;33620;52.340;5.984;2023-06-05T11:07:43;21.63;49.82
47861;HTU21D;33620;52.340;5.984;2023-06-05T11:10:14;21.70;48.90
47861;HTU21D;33620;52.340;5.984;2023-06-05T11:28:00;21.74;46.34
47861;HTU21D;33620;52.340;5.984;2023-06-05T11:30:40;21.73;47.46
47861;HTU21D;33620;52.340;5.984;2023-06-05T11:33:12;21.81;48.70
47861;HTU21D;33620;52.340;5.984;2023-06-05T11:35:39;21.93;47.87
47861;HTU21D;33620;52.340;5.984;2023-06-05T11:38:08;21.90;46.71
47861;HTU21D;33620;52.340;5.984;2023-06-05T11:40:34;22.03;47.49
47861;HTU21D;33620;52.340;5.984;2023-06-05T11:43:04;22.13;47.60
47861;HTU21D;33620;52.340;5.984;2023-06-05T11:45:31;22.28;47.67
47861;HTU21D;33620;52.340;5.984;2023-06-05T11:48:07;22.36;47.23
47861;HTU21D;33620;52.340;5.984;2023-06-05T11:50:33;22.44;46.21
47861;HTU21D;33620;52.340;5.984;2023-06-05T11:53:09;22.50;46.76
47861;HTU21D;33620;52.340;5.984;2023-06-05T11:55:35;22.55;47.67
47861;HTU21D;33620;52.340;5.984;2023-06-05T11:58:28;22.42;47.49
47861;HTU21D;33620;52.340;5.984;2023-06-05T12:01:13;22.48;46.96
47861;HTU21D;33620;52.340;5.984;2023-06-05T12:06:28;22.57;46.79
47861;HTU21D;33620;52.340;5.984;2023-06-05T12:09:06;22.55;47.19
47861;HTU21D;33620;52.340;5.984;2023-06-05T12:11:33;22.58;46.68
47861;HTU21D;33620;52.340;5.984;2023-06-05T12:13:59;22.55;47.67
47861;HTU21D;33620;52.340;5.984;2023-06-05T12:16:38;22.57;47.41
47861;HTU21D;33620;52.340;5.984;2023-06-05T12:19:16;22.56;45.78
47861;HTU21D;33620;52.340;5.984;2023-06-05T12:21:44;22.54;47.56
47861;HTU21D;33620;52.340;5.984;2023-06-05T12:24:10;22.58;46.96
47861;HTU21D;33620;52.340;5.984;2023-06-05T12:26:55;22.50;45.72
47861;HTU21D;33620;52.340;5.984;2023-06-05T12:29:22;22.52;47.20
47861;HTU21D;33620;52.340;5.984;2023-06-05T12:31:48;22.63;46.12
47861;HTU21D;33620;52.340;5.984;2023-06-05T12:34:14;22.67;46.02
47861;HTU21D;33620;52.340;5.984;2023-06-05T12:36:41;22.70;46.19
47861;HTU21D;33620;52.340;5.984;2023-06-05T12:39:10;22.78;46.15
47861;HTU21D;33620;52.340;5.984;2023-06-05T12:41:36;22.83;45.33
47861;HTU21D;33620;52.340;5.984;2023-06-05T12:44:03;22.91;45.18
47861;HTU21D;33620;52.340;5.984;2023-06-05T12:46:33;23.10;45.03
47861;HTU21D;33620;52.340;5.984;2023-06-05T12:48:59;23.08;45.28
47861;HTU21D;33620;52.340;5.984;2023-06-05T12:51:26;23.09;44.78
47861;HTU21D;33620;52.340;5.984;2023-06-05T12:53:55;23.14;44.00
47861;HTU21D;33620;52.340;5.984;2023-06-05T12:56:22;23.12;43.94
47861;HTU21D;33620;52.340;5.984;2023-06-05T12:58:55;23.14;45.28
47861;HTU21D;33620;52.340;5.984;2023-06-05T13:01:22;23.23;45.00
47861;HTU21D;33620;52.340;5.984;2023-06-05T13:03:48;23.24;44.77
47861;HTU21D;33620;52.340;5.984;2023-06-05T13:06:13;23.30;44.03
47861;HTU21D;33620;52.340;5.984;2023-06-05T13:08:38;23.31;44.25
47861;HTU21D;33620;52.340;5.984;2023-06-05T13:11:04;23.41;45.65
47861;HTU21D;33620;52.340;5.984;2023-06-05T13:13:29;23.32;43.39
47861;HTU21D;33620;52.340;5.984;2023-06-05T13:15:55;23.34;44.06
47861;HTU21D;33620;52.340;5.984;2023-06-05T13:18:21;23.44;44.70
47861;HTU21D;33620;52.340;5.984;2023-06-05T13:20:46;23.53;43.58
47861;HTU21D;33620;52.340;5.984;2023-06-05T13:23:11;23.59;42.59
47861;HTU21D;33620;52.340;5.984;2023-06-05T13:25:37;23.54;43.01
47861;HTU21D;33620;52.340;5.984;2023-06-05T13:28:05;23.57;43.61
47861;HTU21D;33620;52.340;5.984;2023-06-05T13:30:31;23.66;43.52
47861;HTU21D;33620;52.340;5.984;2023-06-05T13:32:57;23.73;43.32
47861;HTU21D;33620;52.340;5.984;2023-06-05T13:35:22;23.74;42.76
47861;HTU21D;33620;52.340;5.984;2023-06-05T13:37:48;23.67;42.52
47861;HTU21D;33620;52.340;5.984;2023-06-05T13:40:15;23.64;42.95
47861;HTU21D;33620;52.340;5.984;2023-06-05T13:42:40;23.69;42.94
47861;HTU21D;33620;52.340;5.984;2023-06-05T13:45:06;23.73;42.57
47861;HTU21D;33620;52.340;5.984;2023-06-05T13:47:32;23.73;42.55
47861;HTU21D;33620;52.340;5.984;2023-06-05T13:49:57;23.82;42.01
47861;HTU21D;33620;52.340;5.984;2023-06-05T13:52:23;23.84;42.63
47861;HTU21D;33620;52.340;5.984;2023-06-05T13:54:48;23.90;42.66
47861;HTU21D;33620;52.340;5.984;2023-06-05T13:57:13;23.88;42.16
47861;HTU21D;33620;52.340;5.984;2023-06-05T13:59:39;23.91;42.30
47861;HTU21D;33620;52.340;5.984;2023-06-05T14:02:05;23.96;42.21
47861;HTU21D;33620;52.340;5.984;2023-06-05T14:04:31;24.06;41.81
47861;HTU21D;33620;52.340;5.984;2023-06-05T14:06:56;24.08;41.37
47861;HTU21D;33620;52.340;5.984;2023-06-05T14:09:23;23.96;41.82
47861;HTU21D;33620;52.340;5.984;2023-06-05T14:11:49;23.92;42.15
47861;HTU21D;33620;52.340;5.984;2023-06-05T14:14:14;23.98;41.97
47861;HTU21D;33620;52.340;5.984;2023-06-05T14:16:39;24.01;42.06
47861;HTU21D;33620;52.340;5.984;2023-06-05T14:19:05;24.08;42.64
47861;HTU21D;33620;52.340;5.984;2023-06-05T14:21:30;24.08;42.00
47861;HTU21D;33620;52.340;5.984;2023-06-05T14:23:55;24.16;42.37
47861;HTU21D;33620;52.340;5.984;2023-06-05T14:26:21;24.20;41.77
47861;HTU21D;33620;52.340;5.984;2023-06-05T14:28:47;24.19;41.67
47861;HTU21D;33620;52.340;5.984;2023-06-05T14:31:12;24.03;41.80
47861;HTU21D;33620;52.340;5.984;2023-06-05T14:33:38;23.98;42.49
47861;HTU21D;33620;52.340;5.984;2023-06-05T14:36:04;23.97;41.89
47861;HTU21D;33620;52.340;5.984;2023-06-05T14:38:30;23.96;42.14
47861;HTU21D;33620;52.340;5.984;2023-06-05T14:40:55;23.97;42.39
47861;HTU21D;33620;52.340;5.984;2023-06-05T14:43:23;24.04;42.96
47861;HTU21D;33620;52.340;5.984;2023-06-05T14:45:48;24.21;42.32
47861;HTU21D;33620;52.340;5.984;2023-06-05T14:48:13;24.18;41.52
47861;HTU21D;33620;52.340;5.984;2023-06-05T14:50:39;24.29;42.20
47861;HTU21D;33620;52.340;5.984;2023-06-05T14:53:04;24.39;42.39
47861;HTU21D;33620;52.340;5.984;2023-06-05T14:55:30;24.47;41.69
47861;HTU21D;33620;52.340;5.984;2023-06-05T14:57:55;24.48;41.42
47861;HTU21D;33620;52.340;5.984;2023-06-05T15:00:21;24.35;41.87
47861;HTU21D;33620;52.340;5.984;2023-06-05T15:02:46;24.38;41.26
47861;HTU21D;33620;52.340;5.984;2023-06-05T15:05:12;24.31;42.10
47861;HTU21D;33620;52.340;5.984;2023-06-05T15:07:39;24.38;42.19
47861;HTU21D;33620;52.340;5.984;2023-06-05T15:10:05;24.43;41.48
47861;HTU21D;33620;52.340;5.984;2023-06-05T15:12:33;24.34;41.58
47861;HTU21D;33620;52.340;5.984;2023-06-05T15:14:58;24.35;41.26
47861;HTU21D;33620;52.340;5.984;2023-06-05T15:17:23;24.38;41.01
47861;HTU21D;33620;52.340;5.984;2023-06-05T15:19:49;24.47;42.03
47861;HTU21D;33620;52.340;5.984;2023-06-05T15:22:14;24.47;41.18
47861;HTU21D;33620;52.340;5.984;2023-06-05T15:24:39;24.24;41.55
47861;HTU21D;33620;52.340;5.984;2023-06-05T15:27:05;24.32;42.69
47861;HTU21D;33620;52.340;5.984;2023-06-05T15:29:31;24.39;41.53
47861;HTU21D;33620;52.340;5.984;2023-06-05T15:31:56;24.45;41.47
47861;HTU21D;33620;52.340;5.984;2023-06-05T15:34:21;24.38;41.68
47861;HTU21D;33620;52.340;5.984;2023-06-05T15:36:47;24.20;41.69
47861;HTU21D;33620;52.340;5.984;2023-06-05T15:39:12;24.16;42.69
47861;HTU21D;33620;52.340;5.984;2023-06-05T15:41:38;24.20;42.16
47861;HTU21D;33620;52.340;5.984;2023-06-05T15:44:04;24.31;41.31
47861;HTU21D;33620;52.340;5.984;2023-06-05T15:46:29;24.35;41.36
47861;HTU21D;33620;52.340;5.984;2023-06-05T15:48:55;24.39;40.41
47861;HTU21D;33620;52.340;5.984;2023-06-05T15:51:20;24.24;40.20
47861;HTU21D;33620;52.340;5.984;2023-06-05T15:53:45;24.11;40.74
47861;HTU21D;33620;52.340;5.984;2023-06-05T15:56:11;24.00;41.65
47861;HTU21D;33620;52.340;5.984;2023-06-05T15:58:36;24.06;42.65
47861;HTU21D;33620;52.340;5.984;2023-06-05T16:01:01;24.00;42.60
47861;HTU21D;33620;52.340;5.984;2023-06-05T16:03:27;23.91;43.14